sensor_id;sensor_type;location;lat;lon;timestamp;P1;durP1;ratioP1;P2;durP2;ratioP2
56037;SDS011;41907;47.848;9.000;2023-03-04T00:01:12;55.90;;;25.77;;
56037;SDS011;41907;47.848;9.000;2023-03-04T00:03:37;55.00;;;26.98;;
56037;SDS011;41907;47.848;9.000;2023-03-04T00:06:03;52.63;;;25.55;;
56037;SDS011;41907;47.848;9.000;2023-03-04T00:08:29;46.53;;;24.63;;
56037;SDS011;41907;47.848;9.000;2023-03-04T00:10:54;50.13;;;25.88;;
56037;SDS011;41907;47.848;9.000;2023-03-04T00:13:19;47.50;;;23.40;;
56037;SDS011;41907;47.848;9.000;2023-03-04T00:15:46;51.60;;;24.33;;
56037;SDS011;41907;47.848;9.000;2023-03-04T00:18:12;53.38;;;25.85;;
56037;SDS011;41907;47.848;9.000;2023-03-04T00:20:37;46.92;;;24.63;;
56037;SDS011;41907;47.848;9.000;2023-03-04T00:23:03;50.35;;;24.88;;
56037;SDS011;41907;47.848;9.000;2023-03-04T00:25:28;49.00;;;25.13;;
56037;SDS011;41907;47.848;9.000;2023-03-04T00:27:53;51.53;;;25.42;;
56037;SDS011;41907;47.848;9.000;2023-03-04T00:30:19;46.72;;;25.10;;
56037;SDS011;41907;47.848;9.000;2023-03-04T00:32:44;53.85;;;26.75;;
56037;SDS011;41907;47.848;9.000;2023-03-04T00:35:09;50.33;;;24.58;;
56037;SDS011;41907;47.848;9.000;2023-03-04T00:37:35;50.30;;;25.40;;
56037;SDS011;41907;47.848;9.000;2023-03-04T00:40:00;51.15;;;24.40;;
56037;SDS011;41907;47.848;9.000;2023-03-04T00:42:25;54.67;;;26.13;;
56037;SDS011;41907;47.848;9.000;2023-03-04T00:44:51;67.43;;;27.65;;
56037;SDS011;41907;47.848;9.000;2023-03-04T00:47:16;61.50;;;26.70;;
56037;SDS011;41907;47.848;9.000;2023-03-04T00:49:41;53.25;;;26.23;;
56037;SDS011;41907;47.848;9.000;2023-03-04T00:52:07;56.78;;;26.85;;
56037;SDS011;41907;47.848;9.000;2023-03-04T00:54:32;52.38;;;25.52;;
56037;SDS011;41907;47.848;9.000;2023-03-04T00:56:58;58.42;;;27.70;;
56037;SDS011;41907;47.848;9.000;2023-03-04T00:59:23;62.88;;;29.13;;
56037;SDS011;41907;47.848;9.000;2023-03-04T01:01:49;56.55;;;27.70;;
56037;SDS011;41907;47.848;9.000;2023-03-04T01:04:14;57.13;;;27.38;;
56037;SDS011;41907;47.848;9.000;2023-03-04T01:06:40;62.33;;;29.15;;
56037;SDS011;41907;47.848;9.000;2023-03-04T01:09:05;57.35;;;28.15;;
56037;SDS011;41907;47.848;9.000;2023-03-04T01:11:30;58.72;;;26.90;;
56037;SDS011;41907;47.848;9.000;2023-03-04T01:13:56;57.97;;;28.17;;
56037;SDS011;41907;47.848;9.000;2023-03-04T01:16:21;56.72;;;27.67;;
56037;SDS011;41907;47.848;9.000;2023-03-04T01:18:46;58.40;;;27.90;;
56037;SDS011;41907;47.848;9.000;2023-03-04T01:21:12;55.70;;;27.63;;
56037;SDS011;41907;47.848;9.000;2023-03-04T01:23:37;61.47;;;29.08;;
56037;SDS011;41907;47.848;9.000;2023-03-04T01:26:03;59.17;;;29.08;;
56037;SDS011;41907;47.848;9.000;2023-03-04T01:28:28;60.13;;;29.35;;
56037;SDS011;41907;47.848;9.000;2023-03-04T01:30:54;63.72;;;30.05;;
56037;SDS011;41907;47.848;9.000;2023-03-04T01:33:19;57.90;;;28.17;;
56037;SDS011;41907;47.848;9.000;2023-03-04T01:35:44;61.67;;;27.77;;
56037;SDS011;41907;47.848;9.000;2023-03-04T01:38:10;59.15;;;25.88;;
56037;SDS011;41907;47.848;9.000;2023-03-04T01:40:36;54.17;;;26.98;;
56037;SDS011;41907;47.848;9.000;2023-03-04T01:43:02;55.85;;;27.88;;
56037;SDS011;41907;47.848;9.000;2023-03-04T01:45:27;57.30;;;26.67;;
56037;SDS011;41907;47.848;9.000;2023-03-04T01:47:55;59.33;;;27.35;;
56037;SDS011;41907;47.848;9.000;2023-03-04T01:50:27;53.13;;;26.63;;
56037;SDS011;41907;47.848;9.000;2023-03-04T01:52:56;56.08;;;25.70;;
56037;SDS011;41907;47.848;9.000;2023-03-04T01:55:22;56.25;;;26.98;;
56037;SDS011;41907;47.848;9.000;2023-03-04T01:57:49;63.50;;;28.40;;
56037;SDS011;41907;47.848;9.000;2023-03-04T02:00:21;54.75;;;26.63;;
56037;SDS011;41907;47.848;9.000;2023-03-04T02:02:53;55.63;;;25.23;;
56037;SDS011;41907;47.848;9.000;2023-03-04T02:05:28;53.78;;;25.17;;
56037;SDS011;41907;47.848;9.000;2023-03-04T02:07:55;57.55;;;26.55;;
56037;SDS011;41907;47.848;9.000;2023-03-04T02:10:23;49.35;;;25.23;;
56037;SDS011;41907;47.848;9.000;2023-03-04T02:12:48;58.10;;;26.38;;
56037;SDS011;41907;47.848;9.000;2023-03-04T02:15:15;53.03;;;25.85;;
56037;SDS011;41907;47.848;9.000;2023-03-04T02:17:41;49.78;;;23.75;;
56037;SDS011;41907;47.848;9.000;2023-03-04T02:22:39;55.15;;;24.70;;
56037;SDS011;41907;47.848;9.000;2023-03-04T02:25:13;52.42;;;24.67;;
56037;SDS011;41907;47.848;9.000;2023-03-04T02:27:45;56.53;;;26.65;;
56037;SDS011;41907;47.848;9.000;2023-03-04T02:30:11;65.45;;;28.42;;
56037;SDS011;41907;47.848;9.000;2023-03-04T02:32:37;59.75;;;28.75;;
56037;SDS011;41907;47.848;9.000;2023-03-04T02:35:02;58.33;;;28.25;;
56037;SDS011;41907;47.848;9.000;2023-03-04T02:37:28;61.70;;;27.42;;
56037;SDS011;41907;47.848;9.000;2023-03-04T02:39:53;64.18;;;28.05;;
56037;SDS011;41907;47.848;9.000;2023-03-04T02:42:19;61.63;;;27.48;;
56037;SDS011;41907;47.848;9.000;2023-03-04T02:44:45;61.63;;;28.02;;
56037;SDS011;41907;47.848;9.000;2023-03-04T02:47:14;60.42;;;29.15;;
56037;SDS011;41907;47.848;9.000;2023-03-04T02:49:42;72.35;;;31.45;;
56037;SDS011;41907;47.848;9.000;2023-03-04T02:52:09;64.15;;;28.80;;
56037;SDS011;41907;47.848;9.000;2023-03-04T02:54:37;61.38;;;28.70;;
56037;SDS011;41907;47.848;9.000;2023-03-04T02:57:05;61.88;;;28.20;;
56037;SDS011;41907;47.848;9.000;2023-03-04T02:59:32;60.28;;;27.50;;
56037;SDS011;41907;47.848;9.000;2023-03-04T03:01:58;61.63;;;28.60;;
56037;SDS011;41907;47.848;9.000;2023-03-04T03:04:24;58.70;;;28.10;;
56037;SDS011;41907;47.848;9.000;2023-03-04T03:06:50;59.67;;;28.27;;
56037;SDS011;41907;47.848;9.000;2023-03-04T03:09:15;64.40;;;27.17;;
56037;SDS011;41907;47.848;9.000;2023-03-04T03:11:41;61.70;;;28.63;;
56037;SDS011;41907;47.848;9.000;2023-03-04T03:14:07;60.47;;;27.60;;
56037;SDS011;41907;47.848;9.000;2023-03-04T03:16:33;70.70;;;29.92;;
56037;SDS011;41907;47.848;9.000;2023-03-04T03:18:58;68.18;;;29.20;;
56037;SDS011;41907;47.848;9.000;2023-03-04T03:21:24;69.22;;;30.45;;
56037;SDS011;41907;47.848;9.000;2023-03-04T03:23:49;65.45;;;30.88;;
56037;SDS011;41907;47.848;9.000;2023-03-04T03:26:15;64.78;;;28.88;;
56037;SDS011;41907;47.848;9.000;2023-03-04T03:28:41;59.28;;;27.65;;
56037;SDS011;41907;47.848;9.000;2023-03-04T03:31:06;63.72;;;27.42;;
56037;SDS011;41907;47.848;9.000;2023-03-04T03:33:32;57.83;;;26.83;;
56037;SDS011;41907;47.848;9.000;2023-03-04T03:35:57;60.95;;;26.95;;
56037;SDS011;41907;47.848;9.000;2023-03-04T03:38:22;57.50;;;26.08;;
56037;SDS011;41907;47.848;9.000;2023-03-04T03:40:48;54.25;;;27.77;;
56037;SDS011;41907;47.848;9.000;2023-03-04T03:43:13;56.38;;;25.75;;
56037;SDS011;41907;47.848;9.000;2023-03-04T03:45:38;57.13;;;27.45;;
56037;SDS011;41907;47.848;9.000;2023-03-04T03:48:04;57.83;;;26.50;;
56037;SDS011;41907;47.848;9.000;2023-03-04T03:50:29;53.78;;;25.25;;
56037;SDS011;41907;47.848;9.000;2023-03-04T03:52:55;58.80;;;24.98;;
56037;SDS011;41907;47.848;9.000;2023-03-04T03:55:21;58.08;;;25.50;;
56037;SDS011;41907;47.848;9.000;2023-03-04T03:57:46;58.67;;;27.40;;
56037;SDS011;41907;47.848;9.000;2023-03-04T04:00:12;55.33;;;25.25;;
56037;SDS011;41907;47.848;9.000;2023-03-04T04:02:38;54.30;;;26.70;;
56037;SDS011;41907;47.848;9.000;2023-03-04T04:05:04;56.80;;;26.02;;
56037;SDS011;41907;47.848;9.000;2023-03-04T04:07:30;56.47;;;24.25;;
56037;SDS011;41907;47.848;9.000;2023-03-04T04:09:56;62.80;;;27.38;;
56037;SDS011;41907;47.848;9.000;2023-03-04T04:12:21;62.53;;;27.23;;
56037;SDS011;41907;47.848;9.000;2023-03-04T04:14:47;64.68;;;28.38;;
56037;SDS011;41907;47.848;9.000;2023-03-04T04:17:12;59.72;;;28.15;;
56037;SDS011;41907;47.848;9.000;2023-03-04T04:19:38;67.15;;;28.48;;
56037;SDS011;41907;47.848;9.000;2023-03-04T04:22:04;63.35;;;29.38;;
56037;SDS011;41907;47.848;9.000;2023-03-04T04:24:30;64.45;;;29.13;;
56037;SDS011;41907;47.848;9.000;2023-03-04T04:26:56;56.50;;;25.90;;
56037;SDS011;41907;47.848;9.000;2023-03-04T04:29:21;63.72;;;28.95;;
56037;SDS011;41907;47.848;9.000;2023-03-04T04:31:47;57.60;;;26.48;;
56037;SDS011;41907;47.848;9.000;2023-03-04T04:34:12;70.60;;;29.83;;
56037;SDS011;41907;47.848;9.000;2023-03-04T04:36:38;64.85;;;27.88;;
56037;SDS011;41907;47.848;9.000;2023-03-04T04:39:03;53.65;;;27.20;;
56037;SDS011;41907;47.848;9.000;2023-03-04T04:41:30;58.45;;;26.83;;
56037;SDS011;41907;47.848;9.000;2023-03-04T04:44:00;54.60;;;26.33;;
56037;SDS011;41907;47.848;9.000;2023-03-04T04:46:26;55.45;;;25.98;;
56037;SDS011;41907;47.848;9.000;2023-03-04T04:48:51;52.97;;;26.17;;
56037;SDS011;41907;47.848;9.000;2023-03-04T04:51:17;58.20;;;25.30;;
56037;SDS011;41907;47.848;9.000;2023-03-04T04:53:42;62.88;;;28.52;;
56037;SDS011;41907;47.848;9.000;2023-03-04T04:56:10;55.10;;;26.83;;
56037;SDS011;41907;47.848;9.000;2023-03-04T04:58:40;57.33;;;26.63;;
56037;SDS011;41907;47.848;9.000;2023-03-04T05:01:06;62.00;;;27.27;;
56037;SDS011;41907;47.848;9.000;2023-03-04T05:03:32;69.32;;;28.92;;
56037;SDS011;41907;47.848;9.000;2023-03-04T05:05:59;58.67;;;28.45;;
56037;SDS011;41907;47.848;9.000;2023-03-04T05:08:24;64.72;;;29.20;;
56037;SDS011;41907;47.848;9.000;2023-03-04T05:10:50;64.35;;;29.30;;
56037;SDS011;41907;47.848;9.000;2023-03-04T05:13:16;65.25;;;29.42;;
56037;SDS011;41907;47.848;9.000;2023-03-04T05:15:43;73.55;;;32.72;;
56037;SDS011;41907;47.848;9.000;2023-03-04T05:18:09;68.50;;;30.75;;
56037;SDS011;41907;47.848;9.000;2023-03-04T05:20:34;67.28;;;30.75;;
56037;SDS011;41907;47.848;9.000;2023-03-04T05:23:00;70.60;;;30.63;;
56037;SDS011;41907;47.848;9.000;2023-03-04T05:25:25;75.03;;;30.85;;
56037;SDS011;41907;47.848;9.000;2023-03-04T05:27:50;73.07;;;30.42;;
56037;SDS011;41907;47.848;9.000;2023-03-04T05:30:16;67.10;;;30.00;;
56037;SDS011;41907;47.848;9.000;2023-03-04T05:32:41;68.47;;;29.88;;
56037;SDS011;41907;47.848;9.000;2023-03-04T05:35:07;64.50;;;30.20;;
56037;SDS011;41907;47.848;9.000;2023-03-04T05:37:32;66.43;;;30.13;;
56037;SDS011;41907;47.848;9.000;2023-03-04T05:39:58;70.95;;;29.48;;
56037;SDS011;41907;47.848;9.000;2023-03-04T05:42:23;61.30;;;28.23;;
56037;SDS011;41907;47.848;9.000;2023-03-04T05:44:48;63.60;;;29.52;;
56037;SDS011;41907;47.848;9.000;2023-03-04T05:47:14;68.22;;;29.42;;
56037;SDS011;41907;47.848;9.000;2023-03-04T05:49:39;63.78;;;28.83;;
56037;SDS011;41907;47.848;9.000;2023-03-04T05:52:05;67.32;;;29.65;;
56037;SDS011;41907;47.848;9.000;2023-03-04T05:54:31;62.20;;;28.23;;
56037;SDS011;41907;47.848;9.000;2023-03-04T05:56:56;71.60;;;29.77;;
56037;SDS011;41907;47.848;9.000;2023-03-04T05:59:21;67.75;;;30.38;;
56037;SDS011;41907;47.848;9.000;2023-03-04T06:01:47;75.05;;;30.42;;
56037;SDS011;41907;47.848;9.000;2023-03-04T06:04:12;58.10;;;28.55;;
56037;SDS011;41907;47.848;9.000;2023-03-04T06:06:38;64.90;;;30.05;;
56037;SDS011;41907;47.848;9.000;2023-03-04T06:09:03;66.47;;;30.88;;
56037;SDS011;41907;47.848;9.000;2023-03-04T06:11:29;63.97;;;27.58;;
56037;SDS011;41907;47.848;9.000;2023-03-04T06:13:54;65.18;;;28.60;;
56037;SDS011;41907;47.848;9.000;2023-03-04T06:16:19;65.88;;;29.20;;
56037;SDS011;41907;47.848;9.000;2023-03-04T06:18:45;61.22;;;26.92;;
56037;SDS011;41907;47.848;9.000;2023-03-04T06:21:10;61.20;;;28.58;;
56037;SDS011;41907;47.848;9.000;2023-03-04T06:23:36;69.20;;;29.63;;
56037;SDS011;41907;47.848;9.000;2023-03-04T06:26:01;64.32;;;29.20;;
56037;SDS011;41907;47.848;9.000;2023-03-04T06:28:27;61.88;;;28.27;;
56037;SDS011;41907;47.848;9.000;2023-03-04T06:30:54;65.57;;;29.50;;
56037;SDS011;41907;47.848;9.000;2023-03-04T06:33:20;63.30;;;28.80;;
56037;SDS011;41907;47.848;9.000;2023-03-04T06:35:46;65.55;;;29.33;;
56037;SDS011;41907;47.848;9.000;2023-03-04T06:38:12;63.80;;;28.02;;
56037;SDS011;41907;47.848;9.000;2023-03-04T06:40:38;68.45;;;28.85;;
56037;SDS011;41907;47.848;9.000;2023-03-04T06:43:03;63.90;;;28.15;;
56037;SDS011;41907;47.848;9.000;2023-03-04T06:45:28;63.50;;;27.45;;
56037;SDS011;41907;47.848;9.000;2023-03-04T06:47:54;57.47;;;26.83;;
56037;SDS011;41907;47.848;9.000;2023-03-04T06:50:19;61.90;;;27.63;;
56037;SDS011;41907;47.848;9.000;2023-03-04T06:52:44;61.08;;;28.38;;
56037;SDS011;41907;47.848;9.000;2023-03-04T06:55:10;58.85;;;29.55;;
56037;SDS011;41907;47.848;9.000;2023-03-04T06:57:37;61.83;;;28.67;;
56037;SDS011;41907;47.848;9.000;2023-03-04T07:00:03;60.38;;;28.55;;
56037;SDS011;41907;47.848;9.000;2023-03-04T07:02:29;70.28;;;28.75;;
56037;SDS011;41907;47.848;9.000;2023-03-04T07:04:54;56.13;;;26.58;;
56037;SDS011;41907;47.848;9.000;2023-03-04T07:07:20;51.65;;;25.45;;
56037;SDS011;41907;47.848;9.000;2023-03-04T07:09:45;57.75;;;27.13;;
56037;SDS011;41907;47.848;9.000;2023-03-04T07:12:10;57.63;;;26.92;;
56037;SDS011;41907;47.848;9.000;2023-03-04T07:14:36;51.78;;;24.90;;
56037;SDS011;41907;47.848;9.000;2023-03-04T07:17:01;48.25;;;23.17;;
56037;SDS011;41907;47.848;9.000;2023-03-04T07:19:26;49.58;;;23.25;;
56037;SDS011;41907;47.848;9.000;2023-03-04T07:21:52;46.42;;;23.60;;
56037;SDS011;41907;47.848;9.000;2023-03-04T07:24:17;45.53;;;22.90;;
56037;SDS011;41907;47.848;9.000;2023-03-04T07:26:43;46.92;;;22.98;;
56037;SDS011;41907;47.848;9.000;2023-03-04T07:29:08;42.40;;;23.50;;
56037;SDS011;41907;47.848;9.000;2023-03-04T07:31:34;40.75;;;22.27;;
56037;SDS011;41907;47.848;9.000;2023-03-04T07:34:04;39.97;;;21.50;;
56037;SDS011;41907;47.848;9.000;2023-03-04T07:36:32;38.90;;;21.25;;
56037;SDS011;41907;47.848;9.000;2023-03-04T07:38:59;42.60;;;22.65;;
56037;SDS011;41907;47.848;9.000;2023-03-04T07:41:25;39.50;;;20.90;;
56037;SDS011;41907;47.848;9.000;2023-03-04T07:43:52;37.42;;;21.63;;
56037;SDS011;41907;47.848;9.000;2023-03-04T07:46:17;38.15;;;20.52;;
56037;SDS011;41907;47.848;9.000;2023-03-04T07:48:43;36.95;;;21.38;;
56037;SDS011;41907;47.848;9.000;2023-03-04T07:51:13;39.20;;;21.58;;
56037;SDS011;41907;47.848;9.000;2023-03-04T07:53:39;37.05;;;21.45;;
56037;SDS011;41907;47.848;9.000;2023-03-04T07:56:06;45.83;;;25.30;;
56037;SDS011;41907;47.848;9.000;2023-03-04T07:58:32;41.78;;;25.00;;
56037;SDS011;41907;47.848;9.000;2023-03-04T08:00:57;41.38;;;24.33;;
56037;SDS011;41907;47.848;9.000;2023-03-04T08:03:23;35.08;;;22.73;;
56037;SDS011;41907;47.848;9.000;2023-03-04T08:05:49;39.30;;;23.88;;
56037;SDS011;41907;47.848;9.000;2023-03-04T08:08:15;35.95;;;22.75;;
56037;SDS011;41907;47.848;9.000;2023-03-04T08:10:40;37.75;;;22.55;;
56037;SDS011;41907;47.848;9.000;2023-03-04T08:13:07;38.83;;;23.52;;
56037;SDS011;41907;47.848;9.000;2023-03-04T08:15:32;35.88;;;22.30;;
56037;SDS011;41907;47.848;9.000;2023-03-04T08:17:59;35.42;;;23.67;;
56037;SDS011;41907;47.848;9.000;2023-03-04T08:20:25;37.13;;;23.05;;
56037;SDS011;41907;47.848;9.000;2023-03-04T08:25:16;36.55;;;22.00;;
56037;SDS011;41907;47.848;9.000;2023-03-04T08:27:41;39.40;;;22.58;;
56037;SDS011;41907;47.848;9.000;2023-03-04T08:30:07;33.95;;;22.02;;
56037;SDS011;41907;47.848;9.000;2023-03-04T08:32:33;36.28;;;21.70;;
56037;SDS011;41907;47.848;9.000;2023-03-04T08:34:58;38.83;;;23.25;;
56037;SDS011;41907;47.848;9.000;2023-03-04T08:37:26;39.88;;;24.40;;
56037;SDS011;41907;47.848;9.000;2023-03-04T08:39:52;41.00;;;25.23;;
56037;SDS011;41907;47.848;9.000;2023-03-04T08:42:17;36.80;;;22.75;;
56037;SDS011;41907;47.848;9.000;2023-03-04T08:44:42;34.80;;;22.38;;
56037;SDS011;41907;47.848;9.000;2023-03-04T08:47:08;36.65;;;23.55;;
56037;SDS011;41907;47.848;9.000;2023-03-04T08:49:34;38.30;;;23.05;;
56037;SDS011;41907;47.848;9.000;2023-03-04T08:52:00;35.65;;;23.15;;
56037;SDS011;41907;47.848;9.000;2023-03-04T08:54:25;37.58;;;23.95;;
56037;SDS011;41907;47.848;9.000;2023-03-04T08:56:50;35.70;;;23.27;;
56037;SDS011;41907;47.848;9.000;2023-03-04T08:59:15;38.45;;;23.70;;
56037;SDS011;41907;47.848;9.000;2023-03-04T09:01:41;39.70;;;23.80;;
56037;SDS011;41907;47.848;9.000;2023-03-04T09:04:06;36.05;;;24.60;;
56037;SDS011;41907;47.848;9.000;2023-03-04T09:06:31;43.35;;;26.27;;
56037;SDS011;41907;47.848;9.000;2023-03-04T09:08:57;41.22;;;26.90;;
56037;SDS011;41907;47.848;9.000;2023-03-04T09:11:22;38.90;;;26.60;;
56037;SDS011;41907;47.848;9.000;2023-03-04T09:13:47;40.08;;;26.58;;
56037;SDS011;41907;47.848;9.000;2023-03-04T09:16:15;37.85;;;25.70;;
56037;SDS011;41907;47.848;9.000;2023-03-04T09:18:40;37.13;;;25.65;;
56037;SDS011;41907;47.848;9.000;2023-03-04T09:21:07;40.33;;;27.67;;
56037;SDS011;41907;47.848;9.000;2023-03-04T09:23:33;41.10;;;27.67;;
56037;SDS011;41907;47.848;9.000;2023-03-04T09:25:59;39.85;;;27.90;;
56037;SDS011;41907;47.848;9.000;2023-03-04T09:28:25;37.60;;;25.77;;
56037;SDS011;41907;47.848;9.000;2023-03-04T09:30:50;40.50;;;28.52;;
56037;SDS011;41907;47.848;9.000;2023-03-04T09:33:16;37.92;;;25.63;;
56037;SDS011;41907;47.848;9.000;2023-03-04T09:35:42;47.10;;;31.58;;
56037;SDS011;41907;47.848;9.000;2023-03-04T09:38:07;37.42;;;27.17;;
56037;SDS011;41907;47.848;9.000;2023-03-04T09:40:38;41.78;;;28.30;;
56037;SDS011;41907;47.848;9.000;2023-03-04T09:43:06;41.00;;;27.83;;
56037;SDS011;41907;47.848;9.000;2023-03-04T09:45:43;40.50;;;27.35;;
56037;SDS011;41907;47.848;9.000;2023-03-04T09:48:15;46.85;;;33.03;;
56037;SDS011;41907;47.848;9.000;2023-03-04T09:51:10;50.40;;;31.98;;
56037;SDS011;41907;47.848;9.000;2023-03-04T09:53:42;46.75;;;31.23;;
56037;SDS011;41907;47.848;9.000;2023-03-04T09:58:51;45.10;;;29.40;;
56037;SDS011;41907;47.848;9.000;2023-03-04T10:01:30;51.63;;;31.73;;
56037;SDS011;41907;47.848;9.000;2023-03-04T10:06:40;40.50;;;26.50;;
56037;SDS011;41907;47.848;9.000;2023-03-04T10:09:10;41.15;;;26.50;;
56037;SDS011;41907;47.848;9.000;2023-03-04T10:11:48;40.25;;;28.05;;
56037;SDS011;41907;47.848;9.000;2023-03-04T10:14:29;43.50;;;28.42;;
56037;SDS011;41907;47.848;9.000;2023-03-04T10:16:58;42.13;;;27.98;;
56037;SDS011;41907;47.848;9.000;2023-03-04T10:19:43;42.70;;;28.08;;
56037;SDS011;41907;47.848;9.000;2023-03-04T10:22:55;43.47;;;27.25;;
56037;SDS011;41907;47.848;9.000;2023-03-04T10:25:15;55.20;;;32.80;;
56037;SDS011;41907;47.848;9.000;2023-03-04T10:30:40;44.60;;;27.70;;
56037;SDS011;41907;47.848;9.000;2023-03-04T10:33:18;37.45;;;25.10;;
56037;SDS011;41907;47.848;9.000;2023-03-04T10:35:50;33.40;;;23.13;;
56037;SDS011;41907;47.848;9.000;2023-03-04T10:38:25;38.05;;;25.08;;
56037;SDS011;41907;47.848;9.000;2023-03-04T10:40:55;36.17;;;25.42;;
56037;SDS011;41907;47.848;9.000;2023-03-04T10:43:22;36.53;;;25.80;;
56037;SDS011;41907;47.848;9.000;2023-03-04T10:45:47;38.45;;;26.52;;
56037;SDS011;41907;47.848;9.000;2023-03-04T10:48:20;37.03;;;25.00;;
56037;SDS011;41907;47.848;9.000;2023-03-04T10:50:48;36.08;;;24.13;;
56037;SDS011;41907;47.848;9.000;2023-03-04T10:53:24;37.10;;;24.55;;
56037;SDS011;41907;47.848;9.000;2023-03-04T10:55:57;33.42;;;23.38;;
56037;SDS011;41907;47.848;9.000;2023-03-04T10:58:22;36.15;;;24.23;;
56037;SDS011;41907;47.848;9.000;2023-03-04T11:01:01;35.67;;;24.73;;
56037;SDS011;41907;47.848;9.000;2023-03-04T11:03:34;40.45;;;27.25;;
56037;SDS011;41907;47.848;9.000;2023-03-04T11:06:09;39.58;;;26.85;;
56037;SDS011;41907;47.848;9.000;2023-03-04T11:08:44;43.78;;;29.90;;
56037;SDS011;41907;47.848;9.000;2023-03-04T11:13:59;43.33;;;26.88;;
56037;SDS011;41907;47.848;9.000;2023-03-04T11:16:28;38.75;;;27.17;;
56037;SDS011;41907;47.848;9.000;2023-03-04T11:19:01;39.42;;;26.63;;
56037;SDS011;41907;47.848;9.000;2023-03-04T11:21:31;41.87;;;27.30;;
56037;SDS011;41907;47.848;9.000;2023-03-04T11:24:02;44.58;;;28.02;;
56037;SDS011;41907;47.848;9.000;2023-03-04T11:26:35;44.55;;;27.90;;
56037;SDS011;41907;47.848;9.000;2023-03-04T11:32:13;45.08;;;29.15;;
56037;SDS011;41907;47.848;9.000;2023-03-04T11:34:55;41.15;;;27.65;;
56037;SDS011;41907;47.848;9.000;2023-03-04T11:37:36;42.80;;;27.15;;
56037;SDS011;41907;47.848;9.000;2023-03-04T11:42:38;40.13;;;25.92;;
56037;SDS011;41907;47.848;9.000;2023-03-04T11:48:18;39.60;;;26.80;;
56037;SDS011;41907;47.848;9.000;2023-03-04T11:56:41;43.53;;;28.00;;
56037;SDS011;41907;47.848;9.000;2023-03-04T11:59:14;45.28;;;29.30;;
56037;SDS011;41907;47.848;9.000;2023-03-04T12:04:22;43.80;;;26.88;;
56037;SDS011;41907;47.848;9.000;2023-03-04T12:07:37;43.05;;;26.10;;
56037;SDS011;41907;47.848;9.000;2023-03-04T12:10:32;46.50;;;27.48;;
56037;SDS011;41907;47.848;9.000;2023-03-04T12:27:35;51.15;;;27.65;;
56037;SDS011;41907;47.848;9.000;2023-03-04T12:30:15;56.35;;;30.13;;
56037;SDS011;41907;47.848;9.000;2023-03-04T12:38:54;49.33;;;26.90;;
56037;SDS011;41907;47.848;9.000;2023-03-04T12:44:06;48.53;;;27.13;;
56037;SDS011;41907;47.848;9.000;2023-03-04T12:51:54;48.30;;;27.90;;
56037;SDS011;41907;47.848;9.000;2023-03-04T12:54:33;49.53;;;26.77;;
56037;SDS011;41907;47.848;9.000;2023-03-04T12:59:45;51.00;;;27.13;;
56037;SDS011;41907;47.848;9.000;2023-03-04T13:04:56;46.42;;;27.08;;
56037;SDS011;41907;47.848;9.000;2023-03-04T13:09:57;55.80;;;29.25;;
56037;SDS011;41907;47.848;9.000;2023-03-04T13:12:29;48.80;;;26.83;;
56037;SDS011;41907;47.848;9.000;2023-03-04T13:41:11;44.40;;;25.73;;
56037;SDS011;41907;47.848;9.000;2023-03-04T13:43:42;47.03;;;26.15;;
56037;SDS011;41907;47.848;9.000;2023-03-04T13:51:17;57.30;;;29.38;;
56037;SDS011;41907;47.848;9.000;2023-03-04T13:56:21;51.63;;;28.15;;
56037;SDS011;41907;47.848;9.000;2023-03-04T14:01:46;100.47;;;49.03;;
56037;SDS011;41907;47.848;9.000;2023-03-04T14:06:46;48.53;;;26.95;;
56037;SDS011;41907;47.848;9.000;2023-03-04T14:09:18;47.22;;;27.42;;
56037;SDS011;41907;47.848;9.000;2023-03-04T14:11:47;51.78;;;27.08;;
56037;SDS011;41907;47.848;9.000;2023-03-04T14:14:15;54.53;;;28.70;;
56037;SDS011;41907;47.848;9.000;2023-03-04T14:17:05;52.58;;;27.88;;
56037;SDS011;41907;47.848;9.000;2023-03-04T14:19:31;56.58;;;30.70;;
56037;SDS011;41907;47.848;9.000;2023-03-04T14:22:02;51.13;;;28.52;;
56037;SDS011;41907;47.848;9.000;2023-03-04T14:24:54;53.60;;;29.33;;
56037;SDS011;41907;47.848;9.000;2023-03-04T14:27:26;51.28;;;27.05;;
56037;SDS011;41907;47.848;9.000;2023-03-04T14:29:54;51.88;;;26.10;;
56037;SDS011;41907;47.848;9.000;2023-03-04T14:32:20;54.35;;;31.85;;
56037;SDS011;41907;47.848;9.000;2023-03-04T14:34:47;55.50;;;30.17;;
56037;SDS011;41907;47.848;9.000;2023-03-04T14:37:18;52.67;;;26.67;;
56037;SDS011;41907;47.848;9.000;2023-03-04T14:39:47;49.78;;;27.38;;
56037;SDS011;41907;47.848;9.000;2023-03-04T14:42:17;52.25;;;27.67;;
56037;SDS011;41907;47.848;9.000;2023-03-04T14:44:46;50.78;;;27.88;;
56037;SDS011;41907;47.848;9.000;2023-03-04T14:49:48;47.88;;;26.95;;
56037;SDS011;41907;47.848;9.000;2023-03-04T14:52:29;51.42;;;25.92;;
56037;SDS011;41907;47.848;9.000;2023-03-04T14:55:08;44.85;;;25.17;;
56037;SDS011;41907;47.848;9.000;2023-03-04T14:57:41;53.42;;;27.33;;
56037;SDS011;41907;47.848;9.000;2023-03-04T15:02:54;53.47;;;27.45;;
56037;SDS011;41907;47.848;9.000;2023-03-04T15:05:23;51.03;;;27.13;;
56037;SDS011;41907;47.848;9.000;2023-03-04T15:07:55;50.65;;;26.08;;
56037;SDS011;41907;47.848;9.000;2023-03-04T15:10:32;51.97;;;27.08;;
56037;SDS011;41907;47.848;9.000;2023-03-04T15:13:00;48.75;;;25.38;;
56037;SDS011;41907;47.848;9.000;2023-03-04T15:15:37;50.20;;;26.17;;
56037;SDS011;41907;47.848;9.000;2023-03-04T15:18:19;47.10;;;24.35;;
56037;SDS011;41907;47.848;9.000;2023-03-04T15:21:01;66.43;;;35.70;;
56037;SDS011;41907;47.848;9.000;2023-03-04T15:23:31;57.08;;;30.23;;
56037;SDS011;41907;47.848;9.000;2023-03-04T15:25:59;58.67;;;29.83;;
56037;SDS011;41907;47.848;9.000;2023-03-04T15:28:33;58.22;;;29.48;;
56037;SDS011;41907;47.848;9.000;2023-03-04T15:31:00;55.22;;;28.52;;
56037;SDS011;41907;47.848;9.000;2023-03-04T15:33:25;55.78;;;28.42;;
56037;SDS011;41907;47.848;9.000;2023-03-04T15:35:52;55.22;;;29.00;;
56037;SDS011;41907;47.848;9.000;2023-03-04T15:38:20;58.13;;;29.65;;
56037;SDS011;41907;47.848;9.000;2023-03-04T15:40:46;55.90;;;27.92;;
56037;SDS011;41907;47.848;9.000;2023-03-04T15:43:16;55.97;;;27.77;;
56037;SDS011;41907;47.848;9.000;2023-03-04T15:45:43;57.28;;;28.42;;
56037;SDS011;41907;47.848;9.000;2023-03-04T15:48:10;54.28;;;28.90;;
56037;SDS011;41907;47.848;9.000;2023-03-04T15:50:38;50.42;;;28.00;;
56037;SDS011;41907;47.848;9.000;2023-03-04T15:53:07;54.78;;;27.92;;
56037;SDS011;41907;47.848;9.000;2023-03-04T15:55:38;57.65;;;27.73;;
56037;SDS011;41907;47.848;9.000;2023-03-04T15:58:03;61.45;;;28.98;;
56037;SDS011;41907;47.848;9.000;2023-03-04T16:00:30;58.28;;;29.95;;
56037;SDS011;41907;47.848;9.000;2023-03-04T16:02:56;56.75;;;27.65;;
56037;SDS011;41907;47.848;9.000;2023-03-04T16:05:21;55.15;;;27.35;;
56037;SDS011;41907;47.848;9.000;2023-03-04T16:07:47;56.80;;;28.35;;
56037;SDS011;41907;47.848;9.000;2023-03-04T16:12:50;55.38;;;29.58;;
56037;SDS011;41907;47.848;9.000;2023-03-04T16:15:18;63.78;;;30.02;;
56037;SDS011;41907;47.848;9.000;2023-03-04T16:17:45;60.47;;;30.88;;
56037;SDS011;41907;47.848;9.000;2023-03-04T16:20:12;61.25;;;29.58;;
56037;SDS011;41907;47.848;9.000;2023-03-04T16:22:39;58.78;;;29.58;;